createdAt,value
2022-08-17T00:01:52.873Z,99.90
2022-08-17T00:04:23.705Z,99.90
2022-08-17T00:06:53.498Z,99.90
2022-08-17T00:09:22.109Z,99.90
2022-08-17T00:12:40.576Z,99.90
2022-08-17T00:14:40.933Z,99.90
2022-08-17T00:17:09.835Z,99.90
2022-08-17T00:19:38.435Z,99.90
2022-08-17T00:22:33.564Z,99.90
2022-08-17T00:24:56.404Z,99.90
2022-08-17T00:27:26.481Z,99.90
2022-08-17T00:29:55.047Z,99.90
2022-08-17T00:33:12.119Z,99.90
2022-08-17T00:35:16.179Z,99.90
2022-08-17T00:37:44.915Z,99.90
2022-08-17T00:40:16.911Z,99.90
2022-08-17T00:42:49.561Z,99.90
2022-08-17T00:45:20.518Z,99.90
2022-08-17T00:47:49.756Z,99.90
2022-08-17T00:50:21.394Z,99.90
2022-08-17T00:52:55.535Z,99.90
2022-08-17T00:55:26.655Z,99.90
2022-08-17T00:58:01.353Z,99.90
2022-08-17T01:00:33.157Z,99.90
2022-08-17T01:03:06.735Z,99.90
2022-08-17T01:05:42.370Z,99.90
2022-08-17T01:08:16.455Z,99.90
2022-08-17T01:10:59.259Z,99.90
2022-08-17T01:13:40.818Z,99.90
2022-08-17T01:16:17.806Z,99.90
2022-08-17T01:18:50.035Z,99.90
2022-08-17T01:21:25.924Z,99.90
2022-08-17T01:23:56.790Z,99.90
2022-08-17T01:26:25.734Z,99.90
2022-08-17T01:28:55.967Z,99.90
2022-08-17T01:31:29.266Z,99.90
2022-08-17T01:33:59.666Z,99.90
2022-08-17T01:36:30.673Z,99.90
2022-08-17T01:39:00.956Z,99.90
2022-08-17T01:41:30.465Z,99.90
2022-08-17T01:44:03.884Z,99.90
2022-08-17T01:46:34.984Z,99.90
2022-08-17T01:49:07.584Z,99.90
2022-08-17T01:51:36.248Z,99.90
2022-08-17T01:54:09.734Z,99.90
2022-08-17T01:56:42.901Z,99.90
2022-08-17T01:59:11.874Z,99.90
2022-08-17T02:01:41.057Z,99.90
2022-08-17T02:04:10.145Z,99.90
2022-08-17T02:06:53.698Z,99.90
2022-08-17T02:09:26.085Z,99.90
2022-08-17T02:12:00.304Z,99.90
2022-08-17T02:14:48.994Z,99.90
2022-08-17T02:17:17.675Z,99.90
2022-08-17T02:19:46.377Z,99.90
2022-08-17T02:22:15.825Z,99.90
2022-08-17T02:25:00.719Z,99.90
2022-08-17T02:27:30.765Z,99.90
2022-08-17T02:29:59.488Z,99.90
2022-08-17T02:32:28.825Z,99.90
2022-08-17T02:34:58.123Z,99.90
2022-08-17T02:37:27.594Z,99.90
2022-08-17T02:39:58.354Z,99.90
2022-08-17T02:42:31.640Z,99.90
2022-08-17T02:45:00.846Z,99.90
2022-08-17T02:47:29.946Z,99.90
2022-08-17T02:49:58.631Z,99.90
2022-08-17T02:52:42.430Z,99.90
2022-08-17T02:55:16.646Z,99.90
2022-08-17T02:57:45.675Z,99.90
2022-08-17T03:00:18.871Z,99.90
2022-08-17T03:02:47.612Z,99.90
2022-08-17T03:05:18.464Z,99.90
2022-08-17T03:07:47.194Z,99.90
2022-08-17T03:10:19.673Z,99.90
2022-08-17T03:12:52.794Z,99.90
2022-08-17T03:15:23.783Z,99.90
2022-08-17T03:17:52.804Z,99.90
2022-08-17T03:20:22.903Z,99.90
2022-08-17T03:22:53.912Z,99.90
2022-08-17T03:25:26.239Z,99.90
2022-08-17T03:27:55.873Z,99.90
2022-08-17T03:30:26.083Z,99.90
2022-08-17T03:32:56.843Z,99.90
2022-08-17T03:35:28.137Z,99.90
2022-08-17T03:38:00.545Z,99.90
2022-08-17T03:40:54.993Z,99.90
2022-08-17T03:43:20.830Z,99.90
2022-08-17T03:46:11.085Z,99.90
2022-08-17T03:49:14.010Z,99.90
2022-08-17T03:52:00.134Z,99.90
2022-08-17T03:54:45.915Z,99.90
2022-08-17T04:01:28.483Z,99.90
2022-08-17T04:03:57.135Z,99.90
2022-08-17T04:06:25.822Z,99.90
2022-08-17T04:08:54.371Z,99.90
2022-08-17T04:30:40.681Z,99.90
2022-08-17T04:45:56.253Z,99.90
2022-08-17T04:48:29.682Z,99.90
2022-08-17T04:51:10.132Z,99.90
2022-08-17T04:53:40.216Z,99.90
2022-08-17T04:56:15.964Z,99.90
2022-08-17T04:58:48.426Z,99.90
2022-08-17T05:01:23.342Z,99.90
2022-08-17T05:03:53.238Z,99.90
2022-08-17T05:06:22.144Z,99.90
2022-08-17T05:08:50.924Z,99.90
2022-08-17T05:11:21.972Z,99.90
2022-08-17T05:13:51.421Z,99.90
2022-08-17T05:16:23.043Z,99.90
2022-08-17T05:18:52.102Z,99.90
2022-08-17T05:21:21.815Z,99.90
2022-08-17T05:23:54.835Z,99.90
2022-08-17T05:26:26.877Z,99.90
2022-08-17T05:28:59.391Z,99.90
2022-08-17T05:31:31.968Z,99.90
2022-08-17T05:34:00.584Z,99.90
2022-08-17T05:36:43.174Z,99.90
2022-08-17T05:39:16.852Z,99.90
2022-08-17T05:41:48.385Z,99.90
2022-08-17T05:44:18.724Z,99.90
2022-08-17T05:46:51.754Z,99.90
2022-08-17T05:49:23.955Z,99.90
2022-08-17T05:52:10.994Z,99.90
2022-08-17T05:54:52.635Z,99.90
2022-08-17T05:57:52.866Z,99.90
2022-08-17T06:00:29.973Z,99.90
2022-08-17T06:03:32.965Z,99.90
2022-08-17T06:06:14.525Z,99.90
2022-08-17T06:08:51.939Z,99.90
2022-08-17T06:11:29.345Z,99.90
2022-08-17T06:14:18.842Z,99.90
2022-08-17T06:16:52.295Z,99.90
2022-08-17T06:19:34.303Z,99.90
2022-08-17T06:22:05.974Z,99.90
2022-08-17T06:24:40.073Z,99.90
2022-08-17T06:27:15.616Z,99.90
2022-08-17T06:29:50.235Z,99.90
2022-08-17T06:32:19.123Z,99.90
2022-08-17T06:34:49.378Z,99.90
2022-08-17T06:37:52.036Z,99.90
2022-08-17T06:40:50.362Z,99.90
2022-08-17T06:43:30.682Z,99.90
2022-08-17T06:46:07.634Z,99.90
2022-08-17T06:48:44.754Z,99.90
2022-08-17T06:51:24.314Z,99.90
2022-08-17T06:53:59.685Z,99.90
2022-08-17T06:56:53.808Z,99.90
2022-08-17T06:59:54.529Z,99.90
2022-08-17T07:02:29.409Z,99.90
2022-08-17T07:05:15.508Z,99.90
2022-08-17T07:08:05.038Z,99.90
2022-08-17T07:10:40.825Z,99.90
2022-08-17T07:13:27.657Z,99.90
2022-08-17T07:16:04.894Z,99.90
2022-08-17T07:18:34.461Z,99.90
2022-08-17T07:21:14.187Z,99.90
2022-08-17T07:24:02.060Z,99.90
2022-08-17T07:26:30.851Z,99.90
2022-08-17T07:29:02.586Z,99.90
2022-08-17T07:31:33.802Z,99.90
2022-08-17T07:34:08.561Z,99.90
2022-08-17T07:36:37.123Z,99.90
2022-08-17T07:39:07.209Z,99.90
2022-08-17T07:41:53.068Z,99.90
2022-08-17T07:44:28.131Z,99.90
2022-08-17T07:47:14.788Z,99.90
2022-08-17T07:49:46.224Z,99.90
2022-08-17T07:52:50.948Z,99.90
2022-08-17T07:55:31.203Z,99.90
2022-08-17T07:58:00.610Z,99.90
2022-08-17T08:00:32.068Z,99.90
2022-08-17T08:03:19.522Z,99.90
2022-08-17T08:05:54.579Z,99.90
2022-08-17T08:08:30.373Z,99.90
2022-08-17T08:11:05.461Z,99.90
2022-08-17T08:13:34.903Z,99.90
2022-08-17T08:16:26.177Z,99.90
2022-08-17T08:18:57.995Z,99.90
2022-08-17T08:21:44.456Z,99.90
2022-08-17T08:24:40.445Z,99.90
2022-08-17T08:27:29.535Z,99.90
2022-08-17T08:30:05.255Z,99.90
2022-08-17T08:32:50.308Z,99.90
2022-08-17T08:35:31.059Z,99.90
2022-08-17T08:38:09.700Z,99.90
2022-08-17T08:40:51.805Z,99.90
2022-08-17T08:43:32.715Z,99.90
2022-08-17T08:46:09.424Z,99.90
2022-08-17T08:49:00.866Z,99.90
2022-08-17T08:51:37.945Z,99.90
2022-08-17T08:54:16.065Z,99.90
2022-08-17T08:57:19.777Z,99.90
2022-08-17T08:59:58.355Z,99.90
2022-08-17T09:02:54.605Z,99.90
2022-08-17T09:05:35.873Z,99.90
2022-08-17T09:08:28.966Z,99.90
2022-08-17T09:11:03.614Z,96.00
2022-08-17T09:13:46.229Z,91.40
2022-08-17T09:16:30.823Z,95.40
2022-08-17T09:19:05.251Z,92.10
2022-08-17T09:21:48.601Z,95.10
2022-08-17T09:24:24.584Z,74.40
2022-08-17T09:26:59.048Z,65.90
2022-08-17T09:29:35.313Z,69.60
2022-08-17T09:32:15.442Z,70.40
2022-08-17T09:34:50.987Z,73.40
2022-08-17T09:37:27.306Z,74.10
2022-08-17T09:40:09.776Z,74.90
2022-08-17T09:42:46.943Z,75.70
2022-08-17T09:45:31.526Z,79.80
2022-08-17T09:48:06.916Z,78.00
2022-08-17T09:51:04.173Z,83.50
2022-08-17T09:53:31.964Z,82.60
2022-08-17T09:56:25.600Z,90.40
2022-08-17T09:59:18.222Z,89.10
2022-08-17T10:01:56.732Z,87.60
2022-08-17T10:04:40.966Z,92.60
2022-08-17T10:07:16.696Z,92.40
2022-08-17T10:09:59.573Z,90.30
2022-08-17T10:12:37.569Z,82.70
2022-08-17T10:15:18.149Z,81.30
2022-08-17T10:17:59.553Z,69.30
2022-08-17T10:20:33.471Z,68.70
2022-08-17T10:23:25.194Z,56.10
2022-08-17T10:26:15.254Z,53.60
2022-08-17T10:28:50.348Z,53.70
2022-08-17T10:31:35.828Z,50.90
2022-08-17T10:34:29.677Z,49.60
2022-08-17T10:37:13.677Z,51.50
2022-08-17T10:39:53.185Z,47.60
2022-08-17T10:42:30.907Z,48.20
2022-08-17T10:45:05.722Z,50.30
2022-08-17T10:48:05.198Z,49.50
2022-08-17T10:51:08.523Z,45.20
2022-08-17T10:53:58.491Z,47.10
2022-08-17T10:56:46.446Z,45.90
2022-08-17T10:59:48.475Z,42.60
2022-08-17T11:02:26.094Z,42.90
2022-08-17T11:05:08.987Z,39.90
2022-08-17T11:07:59.939Z,40.40
2022-08-17T11:11:04.177Z,40.10
2022-08-17T11:13:46.198Z,41.60
2022-08-17T11:16:38.462Z,42.50
2022-08-17T11:19:38.524Z,45.60
2022-08-17T11:22:44.995Z,47.50
2022-08-17T11:25:17.940Z,47.80
2022-08-17T11:27:53.851Z,50.90
2022-08-17T11:30:48.521Z,48.40
2022-08-17T11:33:54.599Z,48.80
2022-08-17T11:36:41.465Z,46.70
2022-08-17T11:39:30.100Z,46.90
2022-08-17T11:42:06.156Z,39.30
2022-08-17T11:44:48.298Z,44.20
2022-08-17T11:47:40.173Z,40.90
2022-08-17T11:50:55.266Z,38.30
2022-08-17T11:54:21.420Z,40.60
2022-08-17T11:56:50.542Z,37.60
2022-08-17T11:59:58.477Z,37.50
2022-08-17T12:02:48.054Z,37.20
2022-08-17T12:05:33.553Z,38.70
2022-08-17T12:08:19.889Z,41.70
2022-08-17T12:11:03.433Z,40.20
2022-08-17T12:13:39.378Z,40.50
2022-08-17T12:16:10.183Z,39.50
2022-08-17T12:18:42.352Z,41.90
2022-08-17T12:21:36.235Z,40.30
2022-08-17T12:24:14.741Z,40.50
2022-08-17T12:26:45.432Z,40.40
2022-08-17T12:29:18.376Z,39.00
2022-08-17T12:32:08.511Z,38.30
2022-08-17T12:34:42.021Z,39.70
2022-08-17T12:37:18.751Z,40.70
2022-08-17T12:40:00.580Z,40.80
2022-08-17T12:42:33.210Z,41.50
2022-08-17T12:45:01.986Z,40.50
2022-08-17T12:47:32.012Z,40.50
2022-08-17T12:50:29.074Z,41.10
2022-08-17T12:53:01.989Z,41.00
2022-08-17T12:55:37.038Z,38.30
2022-08-17T12:58:05.864Z,43.40
2022-08-17T13:00:38.193Z,40.50
2022-08-17T13:03:12.763Z,41.50
2022-08-17T13:05:48.730Z,42.50
2022-08-17T13:08:21.098Z,41.90
2022-08-17T13:10:57.092Z,43.90
2022-08-17T13:13:28.531Z,41.50
2022-08-17T13:16:00.420Z,44.60
2022-08-17T13:18:42.756Z,46.30
2022-08-17T13:21:27.071Z,49.10
2022-08-17T13:24:01.849Z,50.30
2022-08-17T13:26:35.084Z,51.00
2022-08-17T13:29:08.082Z,49.60
2022-08-17T13:31:52.167Z,51.50
2022-08-17T13:34:55.074Z,52.00
2022-08-17T13:37:33.704Z,52.00
2022-08-17T13:40:26.319Z,57.00
2022-08-17T13:42:56.821Z,60.60
2022-08-17T13:45:39.132Z,62.40
2022-08-17T13:48:15.341Z,66.80
2022-08-17T13:50:46.647Z,66.80
2022-08-17T13:53:22.310Z,70.50
2022-08-17T13:55:53.980Z,69.90
2022-08-17T13:58:27.961Z,79.50
2022-08-17T14:00:57.119Z,83.70
2022-08-17T14:03:26.959Z,86.40
2022-08-17T14:05:55.875Z,94.70
2022-08-17T14:08:30.963Z,88.30
2022-08-17T14:11:00.409Z,86.10
2022-08-17T14:13:29.089Z,86.10
2022-08-17T14:15:58.130Z,92.70
2022-08-17T14:18:41.995Z,99.90
2022-08-17T14:21:16.473Z,91.10
2022-08-17T14:23:54.461Z,90.60
2022-08-17T14:26:24.302Z,91.60
2022-08-17T14:28:56.565Z,92.00
2022-08-17T14:31:27.793Z,92.80
2022-08-17T14:33:59.164Z,94.60
2022-08-17T14:36:28.391Z,97.10
2022-08-17T14:38:58.684Z,94.70
2022-08-17T14:41:27.974Z,94.00
2022-08-17T14:43:56.897Z,94.10
2022-08-17T14:46:26.828Z,98.70
2022-08-17T14:48:57.544Z,96.40
2022-08-17T14:51:27.703Z,95.20
2022-08-17T14:53:58.683Z,93.40
2022-08-17T14:56:31.796Z,92.00
2022-08-17T14:59:07.383Z,90.00
2022-08-17T15:01:36.988Z,90.00
2022-08-17T15:04:06.438Z,86.10
2022-08-17T15:06:35.352Z,86.10
2022-08-17T15:09:05.954Z,89.40
2022-08-17T15:11:35.061Z,86.10
2022-08-17T15:14:04.054Z,91.00
2022-08-17T15:16:36.222Z,83.40
2022-08-17T15:19:06.104Z,80.90
2022-08-17T15:21:35.133Z,82.50
2022-08-17T15:24:06.177Z,85.30
2022-08-17T15:26:35.502Z,87.00
2022-08-17T15:29:05.132Z,85.30
2022-08-17T15:31:34.424Z,86.80
2022-08-17T15:34:05.923Z,88.50
2022-08-17T15:36:37.584Z,91.80
2022-08-17T15:39:10.669Z,86.70
2022-08-17T15:41:39.488Z,90.00
2022-08-17T15:44:08.860Z,86.60
2022-08-17T15:46:38.453Z,91.60
2022-08-17T15:49:08.731Z,90.40
2022-08-17T15:51:38.115Z,88.00
2022-08-17T15:54:22.428Z,91.50
2022-08-17T15:56:53.622Z,90.10
2022-08-17T15:59:23.058Z,90.50
2022-08-17T16:03:13.295Z,90.60
2022-08-17T16:04:44.141Z,88.90
2022-08-17T16:07:14.282Z,90.30
2022-08-17T16:09:42.913Z,90.00
2022-08-17T16:12:17.752Z,86.80
2022-08-17T16:14:47.812Z,88.30
2022-08-17T16:17:38.976Z,86.70
2022-08-17T16:20:07.865Z,87.10
2022-08-17T16:22:40.027Z,88.40
2022-08-17T16:25:12.435Z,91.30
2022-08-17T16:27:43.717Z,91.80
2022-08-17T16:30:17.570Z,91.80
2022-08-17T16:32:48.112Z,94.40
2022-08-17T16:35:18.410Z,94.60
2022-08-17T16:37:47.582Z,96.90
2022-08-17T16:40:18.563Z,97.60
2022-08-17T16:42:50.725Z,99.90
2022-08-17T16:45:22.740Z,99.90
2022-08-17T16:47:52.104Z,99.90
2022-08-17T16:50:23.252Z,99.90
2022-08-17T16:52:52.754Z,99.90
2022-08-17T16:55:23.976Z,99.90
2022-08-17T16:57:54.172Z,99.90
2022-08-17T17:00:23.182Z,99.90
2022-08-17T17:02:52.286Z,99.90
2022-08-17T17:05:39.203Z,99.90
2022-08-17T17:08:13.048Z,99.90
2022-08-17T17:10:46.581Z,99.90
2022-08-17T17:13:23.061Z,99.90
2022-08-17T17:15:59.434Z,99.90
2022-08-17T17:18:41.448Z,99.90
2022-08-17T17:21:16.358Z,99.90
2022-08-17T17:23:51.894Z,99.90
2022-08-17T17:26:45.275Z,99.90
2022-08-17T17:29:46.432Z,99.90
2022-08-17T17:32:23.208Z,99.90
2022-08-17T17:34:56.622Z,99.90
2022-08-17T17:37:32.515Z,99.90
2022-08-17T17:40:06.728Z,99.90
2022-08-17T17:42:36.213Z,99.90
2022-08-17T17:45:13.539Z,99.90
2022-08-17T17:47:42.492Z,99.90
2022-08-17T17:50:12.123Z,99.90
2022-08-17T17:52:49.390Z,99.90
2022-08-17T17:55:33.498Z,99.90
2022-08-17T17:58:20.084Z,99.90
2022-08-17T18:01:00.095Z,99.90
2022-08-17T18:03:45.121Z,99.90
2022-08-17T18:06:31.283Z,99.90
2022-08-17T18:09:10.472Z,99.90
2022-08-17T18:12:04.877Z,99.90
2022-08-17T18:15:00.602Z,99.90
2022-08-17T18:17:31.607Z,99.90
2022-08-17T18:20:00.851Z,99.90
2022-08-17T18:22:31.596Z,99.90
2022-08-17T18:25:00.435Z,99.90
2022-08-17T18:27:35.073Z,99.90
2022-08-17T18:30:23.775Z,99.90
2022-08-17T18:32:54.308Z,99.90
2022-08-17T18:35:32.890Z,99.90
2022-08-17T18:38:21.784Z,99.90
2022-08-17T18:41:02.454Z,99.90
2022-08-17T18:43:44.457Z,99.90
2022-08-17T18:46:29.986Z,99.90
2022-08-17T18:49:02.911Z,99.90
2022-08-17T18:51:40.343Z,99.90
2022-08-17T18:54:21.150Z,99.90
2022-08-17T18:56:56.134Z,99.90
2022-08-17T18:59:29.926Z,99.90
2022-08-17T19:02:43.365Z,99.90
2022-08-17T19:05:32.281Z,99.90
2022-08-17T19:08:19.878Z,99.90
2022-08-17T19:10:51.448Z,99.90
2022-08-17T19:13:25.920Z,99.90
2022-08-17T19:16:12.017Z,99.90
2022-08-17T19:18:47.564Z,99.90
2022-08-17T19:21:21.326Z,99.90
2022-08-17T19:23:55.708Z,99.90
2022-08-17T19:26:51.308Z,99.90
2022-08-17T19:29:23.664Z,99.90
2022-08-17T19:31:53.083Z,99.90
2022-08-17T19:34:30.220Z,99.90
2022-08-17T19:37:09.287Z,99.90
2022-08-17T19:56:41.963Z,99.90
2022-08-17T19:59:21.664Z,99.90
2022-08-17T20:01:54.796Z,99.90
2022-08-17T20:04:37.321Z,99.90
2022-08-17T20:07:12.509Z,99.90
2022-08-17T20:09:43.893Z,99.90
2022-08-17T20:12:19.952Z,99.90
2022-08-17T20:14:55.944Z,99.90
2022-08-17T20:17:28.683Z,99.90
2022-08-17T20:20:04.634Z,99.90
2022-08-17T20:22:52.296Z,99.90
2022-08-17T20:25:30.285Z,99.90
2022-08-17T20:28:07.319Z,99.90
2022-08-17T20:30:41.117Z,99.90
2022-08-17T20:33:26.934Z,99.90
2022-08-17T20:36:06.691Z,99.90
2022-08-17T20:38:43.825Z,99.90
2022-08-17T20:41:15.982Z,99.90
2022-08-17T20:44:06.384Z,99.90
2022-08-17T20:46:53.040Z,99.90
2022-08-17T20:49:27.171Z,99.90
2022-08-17T20:52:03.989Z,99.90
2022-08-17T20:54:46.690Z,99.90
2022-08-17T20:57:48.038Z,99.90
2022-08-17T21:00:43.781Z,99.90
2022-08-17T21:03:51.062Z,99.90
2022-08-17T21:06:27.322Z,99.90
2022-08-17T21:08:59.452Z,99.90
2022-08-17T21:12:03.948Z,99.90
2022-08-17T21:14:58.820Z,99.90
2022-08-17T21:17:50.541Z,99.90
2022-08-17T21:20:32.618Z,99.90
2022-08-17T21:23:27.464Z,99.90
2022-08-17T21:26:13.677Z,99.90
2022-08-17T21:29:00.542Z,99.90
2022-08-17T21:31:37.119Z,99.90
2022-08-17T21:34:30.898Z,99.90
2022-08-17T21:37:14.022Z,99.90
2022-08-17T21:39:43.976Z,99.90
2022-08-17T21:42:14.920Z,99.90
2022-08-17T21:44:49.483Z,99.90
2022-08-17T21:47:22.183Z,99.90
2022-08-17T21:49:52.531Z,99.90
2022-08-17T21:52:25.013Z,99.90
2022-08-17T21:54:56.013Z,99.90
2022-08-17T21:57:28.480Z,99.90
2022-08-17T21:59:59.974Z,99.90
2022-08-17T22:02:33.158Z,99.90
2022-08-17T22:05:05.303Z,99.90
2022-08-17T22:07:39.896Z,99.90
2022-08-17T22:10:28.853Z,99.90
2022-08-17T22:13:05.272Z,99.90
2022-08-17T22:15:47.353Z,99.90
2022-08-17T22:18:20.561Z,99.90
2022-08-17T22:20:53.242Z,99.90
2022-08-17T22:23:45.262Z,99.90
2022-08-17T22:26:16.582Z,99.90
2022-08-17T22:28:47.623Z,99.90
2022-08-17T22:31:18.665Z,99.90
2022-08-17T22:33:49.972Z,99.90
2022-08-17T22:36:29.155Z,99.90
2022-08-17T22:38:59.960Z,99.90
2022-08-17T22:41:44.973Z,99.90
2022-08-17T22:44:23.544Z,99.90
2022-08-17T22:47:00.137Z,99.90
2022-08-17T22:49:32.261Z,99.90
2022-08-17T22:52:05.581Z,99.90
2022-08-17T22:54:51.981Z,99.90
2022-08-17T22:57:44.492Z,99.90
2022-08-17T23:00:39.471Z,99.90
2022-08-17T23:03:14.267Z,99.90
2022-08-17T23:05:45.711Z,99.90
2022-08-17T23:08:21.512Z,99.90
2022-08-17T23:10:50.448Z,99.90
2022-08-17T23:13:19.041Z,99.90
2022-08-17T23:15:48.353Z,99.90
2022-08-17T23:18:18.363Z,99.90
2022-08-17T23:20:47.691Z,99.90
2022-08-17T23:23:23.410Z,99.90
2022-08-17T23:25:52.282Z,99.90
2022-08-17T23:28:21.993Z,99.90
2022-08-17T23:30:51.077Z,99.90
2022-08-17T23:33:25.848Z,99.90
2022-08-17T23:35:54.881Z,99.90
2022-08-17T23:38:27.564Z,99.90
2022-08-17T23:40:57.071Z,99.90
2022-08-17T23:43:28.371Z,99.90
2022-08-17T23:46:00.303Z,99.90
2022-08-17T23:48:36.314Z,99.90
2022-08-17T23:51:08.918Z,99.90
2022-08-17T23:53:44.211Z,99.90
2022-08-17T23:56:13.091Z,99.90
2022-08-17T23:58:43.345Z,99.90
